createdAt,value
2016-11-04T00:01:10.825Z,99.99
2016-11-04T00:02:23.395Z,99.99
2016-11-04T00:03:34.741Z,99.99
2016-11-04T00:04:46.308Z,99.99
2016-11-04T00:05:59.589Z,99.99
2016-11-04T00:07:11.076Z,99.99
2016-11-04T00:08:23.693Z,99.99
2016-11-04T00:09:35.037Z,99.99
2016-11-04T00:10:46.368Z,99.99
2016-11-04T00:11:58.428Z,99.99
2016-11-04T00:13:09.443Z,99.99
2016-11-04T00:14:20.789Z,99.99
2016-11-04T00:15:32.240Z,99.99
2016-11-04T00:16:44.470Z,99.99
2016-11-04T00:17:56.222Z,99.99
2016-11-04T00:19:08.893Z,99.99
2016-11-04T00:20:19.931Z,99.99
2016-11-04T00:21:31.980Z,99.99
2016-11-04T00:22:44.279Z,99.99
2016-11-04T00:23:55.816Z,99.99
2016-11-04T00:25:06.873Z,99.99
2016-11-04T00:26:18.353Z,99.99
2016-11-04T00:27:30.135Z,99.99
2016-11-04T00:28:41.927Z,99.99
2016-11-04T00:29:54.174Z,99.99
2016-11-04T00:31:06.893Z,99.99
2016-11-04T00:32:19.479Z,99.99
2016-11-04T00:33:30.950Z,99.99
2016-11-04T00:34:43.074Z,99.99
2016-11-04T00:35:55.305Z,99.99
2016-11-04T00:37:06.524Z,99.99
2016-11-04T00:38:16.874Z,99.99
2016-11-04T00:39:28.511Z,99.99
2016-11-04T00:40:40.741Z,99.99
2016-11-04T00:41:52.694Z,99.99
2016-11-04T00:43:03.656Z,99.99
2016-11-04T00:44:15.261Z,99.99
2016-11-04T00:45:27.473Z,99.99
2016-11-04T00:46:38.843Z,99.99
2016-11-04T00:47:51.302Z,99.99
2016-11-04T00:49:02.162Z,99.99
2016-11-04T00:50:14.204Z,99.99
2016-11-04T00:51:26.114Z,99.99
2016-11-04T00:52:37.786Z,99.99
2016-11-04T00:53:48.508Z,99.99
2016-11-04T00:55:01.001Z,99.99
2016-11-04T00:56:13.405Z,99.99
2016-11-04T00:57:25.169Z,99.99
2016-11-04T00:58:37.402Z,99.99
2016-11-04T00:59:50.035Z,99.99
2016-11-04T01:01:02.259Z,99.99
2016-11-04T01:02:14.486Z,99.99
2016-11-04T01:03:27.444Z,99.99
2016-11-04T01:04:40.686Z,99.99
2016-11-04T01:05:53.070Z,99.99
2016-11-04T01:07:04.889Z,99.99
2016-11-04T01:08:15.011Z,99.99
2016-11-04T01:09:26.784Z,99.99
2016-11-04T01:10:37.668Z,99.99
2016-11-04T01:11:49.763Z,99.99
2016-11-04T01:13:02.772Z,99.99
2016-11-04T01:14:14.900Z,99.99
2016-11-04T01:15:27.056Z,99.99
2016-11-04T01:16:39.065Z,99.99
2016-11-04T01:17:50.790Z,99.99
2016-11-04T01:19:02.715Z,99.99
2016-11-04T01:20:14.632Z,99.99
2016-11-04T01:21:27.240Z,99.99
2016-11-04T01:22:38.694Z,99.99
2016-11-04T01:23:50.321Z,99.99
2016-11-04T01:25:02.220Z,99.99
2016-11-04T01:26:13.918Z,99.99
2016-11-04T01:27:26.605Z,99.99
2016-11-04T01:28:38.918Z,99.99
2016-11-04T01:29:50.668Z,99.99
2016-11-04T01:31:02.435Z,99.99
2016-11-04T01:32:14.515Z,99.99
2016-11-04T01:33:26.927Z,99.99
2016-11-04T01:34:38.468Z,99.99
2016-11-04T01:35:49.593Z,99.99
2016-11-04T01:37:02.318Z,99.99
2016-11-04T01:38:13.250Z,99.99
2016-11-04T01:39:25.417Z,99.99
2016-11-04T01:40:37.632Z,99.99
2016-11-04T01:41:49.948Z,99.99
2016-11-04T01:43:02.051Z,99.99
2016-11-04T01:44:13.465Z,99.99
2016-11-04T01:45:24.450Z,99.99
2016-11-04T01:46:36.264Z,99.99
2016-11-04T01:47:47.925Z,99.99
2016-11-04T01:48:59.924Z,99.99
2016-11-04T01:50:12.623Z,99.99
2016-11-04T01:51:24.444Z,99.99
2016-11-04T01:52:36.627Z,99.99
2016-11-04T01:53:49.264Z,99.99
2016-11-04T01:55:01.294Z,99.99
2016-11-04T01:56:12.687Z,99.99
2016-11-04T01:57:24.829Z,99.99
2016-11-04T01:58:38.074Z,99.99
2016-11-04T01:59:50.074Z,99.99
2016-11-04T02:01:01.268Z,99.99
2016-11-04T02:02:13.326Z,99.99
2016-11-04T02:03:26.053Z,99.99
2016-11-04T02:04:38.715Z,99.99
2016-11-04T02:05:49.100Z,99.99
2016-11-04T02:07:01.359Z,99.99
2016-11-04T02:08:13.372Z,99.99
2016-11-04T02:09:25.130Z,99.99
2016-11-04T02:10:36.859Z,99.99
2016-11-04T02:11:49.664Z,99.99
2016-11-04T02:13:01.853Z,99.99
2016-11-04T02:14:13.511Z,99.99
2016-11-04T02:15:24.485Z,99.99
2016-11-04T02:16:36.106Z,99.99
2016-11-04T02:17:48.419Z,99.99
2016-11-04T02:18:58.983Z,99.99
2016-11-04T02:20:11.550Z,99.99
2016-11-04T02:21:23.595Z,99.99
2016-11-04T02:22:34.610Z,99.99
2016-11-04T02:23:47.511Z,99.99
2016-11-04T02:24:59.085Z,99.99
2016-11-04T02:26:11.237Z,99.99
2016-11-04T02:27:23.514Z,99.99
2016-11-04T02:28:36.547Z,99.99
2016-11-04T02:29:49.376Z,99.99
2016-11-04T02:31:01.974Z,99.99
2016-11-04T02:32:15.016Z,99.99
2016-11-04T02:33:27.637Z,99.99
2016-11-04T02:34:39.292Z,99.99
2016-11-04T02:35:49.750Z,99.99
2016-11-04T02:37:01.846Z,99.99
2016-11-04T02:38:13.872Z,99.99
2016-11-04T02:39:26.652Z,99.99
2016-11-04T02:40:38.030Z,99.99
2016-11-04T02:41:50.678Z,99.99
2016-11-04T02:43:01.866Z,99.99
2016-11-04T02:44:14.654Z,99.99
2016-11-04T02:45:26.934Z,99.99
2016-11-04T02:46:38.698Z,99.99
2016-11-04T02:47:51.478Z,99.99
2016-11-04T02:49:03.110Z,99.99
2016-11-04T02:50:14.792Z,99.99
2016-11-04T02:51:27.254Z,99.99
2016-11-04T02:52:38.558Z,99.99
2016-11-04T02:53:49.113Z,99.99
2016-11-04T02:55:01.218Z,99.99
2016-11-04T02:56:13.200Z,99.99
2016-11-04T02:57:23.669Z,99.99
2016-11-04T02:58:35.964Z,99.99
2016-11-04T02:59:47.752Z,99.99
2016-11-04T03:01:00.281Z,99.99
2016-11-04T03:02:12.462Z,99.99
2016-11-04T03:03:24.660Z,99.99
2016-11-04T03:04:36.190Z,99.99
2016-11-04T03:05:47.772Z,99.99
2016-11-04T03:07:00.880Z,99.99
2016-11-04T03:08:13.570Z,99.99
2016-11-04T03:09:25.394Z,99.99
2016-11-04T03:10:38.477Z,99.99
2016-11-04T03:11:50.710Z,99.99
2016-11-04T03:13:02.972Z,99.99
2016-11-04T03:14:16.253Z,99.99
2016-11-04T03:15:28.880Z,99.99
2016-11-04T03:16:40.897Z,99.99
2016-11-04T03:17:53.241Z,99.99
2016-11-04T03:19:05.578Z,99.99
2016-11-04T03:20:17.945Z,99.99
2016-11-04T03:21:31.133Z,99.99
2016-11-04T03:22:43.570Z,99.99
2016-11-04T03:23:55.506Z,99.99
2016-11-04T03:25:07.307Z,99.99
2016-11-04T03:26:19.474Z,99.99
2016-11-04T03:27:32.614Z,99.99
2016-11-04T03:28:44.343Z,99.99
2016-11-04T03:29:56.158Z,99.99
2016-11-04T03:31:07.546Z,99.99
2016-11-04T03:32:20.039Z,99.99
2016-11-04T03:33:30.274Z,99.99
2016-11-04T03:34:42.373Z,99.99
2016-11-04T03:35:54.575Z,99.99
2016-11-04T03:37:07.257Z,99.99
2016-11-04T03:38:18.981Z,99.99
2016-11-04T03:39:30.698Z,99.99
2016-11-04T03:40:42.113Z,99.99
2016-11-04T03:41:54.275Z,99.99
2016-11-04T03:43:07.048Z,99.99
2016-11-04T03:44:19.175Z,99.99
2016-11-04T03:45:30.439Z,99.99
2016-11-04T03:46:42.484Z,99.99
2016-11-04T03:47:54.955Z,99.99
2016-11-04T03:49:05.091Z,99.99
2016-11-04T03:50:17.683Z,99.99
2016-11-04T03:51:30.910Z,99.99
2016-11-04T03:52:42.606Z,99.99
2016-11-04T03:53:54.491Z,99.99
2016-11-04T03:55:05.918Z,99.99
2016-11-04T03:56:19.091Z,99.99
2016-11-04T03:57:31.970Z,99.99
2016-11-04T03:58:44.697Z,99.99
2016-11-04T03:59:56.429Z,99.99
2016-11-04T04:01:08.017Z,99.99
2016-11-04T04:02:20.432Z,99.99
2016-11-04T04:03:32.745Z,99.99
2016-11-04T04:04:43.778Z,99.99
2016-11-04T04:05:55.838Z,99.99
2016-11-04T04:07:07.730Z,99.99
2016-11-04T04:08:20.948Z,99.99
2016-11-04T04:09:33.059Z,99.99
2016-11-04T04:10:45.256Z,99.99
2016-11-04T04:11:57.540Z,99.99
2016-11-04T04:13:10.244Z,99.99
2016-11-04T04:14:22.474Z,99.99
2016-11-04T04:15:34.563Z,99.99
2016-11-04T04:16:45.838Z,99.99
2016-11-04T04:17:57.468Z,99.99
2016-11-04T04:19:08.992Z,99.99
2016-11-04T04:20:20.360Z,99.99
2016-11-04T04:21:32.560Z,99.99
2016-11-04T04:22:43.775Z,99.99
2016-11-04T04:23:56.500Z,99.99
2016-11-04T04:25:07.858Z,99.99
2016-11-04T04:26:19.805Z,99.99
2016-11-04T04:27:31.041Z,99.99
2016-11-04T04:28:43.253Z,99.99
2016-11-04T04:29:55.675Z,99.99
2016-11-04T04:31:07.766Z,99.99
2016-11-04T04:32:19.775Z,99.99
2016-11-04T04:33:33.169Z,99.99
2016-11-04T04:34:45.148Z,99.99
2016-11-04T04:35:57.796Z,99.99
2016-11-04T04:37:10.059Z,99.99
2016-11-04T04:38:22.327Z,99.99
2016-11-04T04:39:35.015Z,99.99
2016-11-04T04:40:47.142Z,99.99
2016-11-04T04:41:59.103Z,99.99
2016-11-04T04:43:11.295Z,99.99
2016-11-04T04:44:23.691Z,99.99
2016-11-04T04:45:35.178Z,99.99
2016-11-04T04:46:46.626Z,99.99
2016-11-04T04:47:58.851Z,99.99
2016-11-04T04:49:11.706Z,99.99
2016-11-04T04:50:24.830Z,99.99
2016-11-04T04:51:37.635Z,99.99
2016-11-04T04:52:50.757Z,99.99
2016-11-04T04:54:02.521Z,99.99
2016-11-04T04:55:14.752Z,99.99
2016-11-04T04:56:25.330Z,99.99
2016-11-04T04:57:37.015Z,99.99
2016-11-04T04:58:49.305Z,99.99
2016-11-04T05:00:01.543Z,99.99
2016-11-04T05:01:12.872Z,99.99
2016-11-04T05:02:23.224Z,99.99
2016-11-04T05:03:35.048Z,99.99
2016-11-04T05:04:47.701Z,99.99
2016-11-04T05:05:59.409Z,99.99
2016-11-04T05:07:12.197Z,99.99
2016-11-04T05:08:24.475Z,99.99
2016-11-04T05:09:37.215Z,99.99
2016-11-04T05:10:49.188Z,99.99
2016-11-04T05:12:00.943Z,99.99
2016-11-04T05:13:12.913Z,99.99
2016-11-04T05:14:25.594Z,99.99
2016-11-04T05:15:36.368Z,99.99
2016-11-04T05:16:48.429Z,99.99
2016-11-04T05:18:00.405Z,99.99
2016-11-04T05:19:11.797Z,99.99
2016-11-04T05:20:23.478Z,99.99
2016-11-04T05:21:34.740Z,99.99
2016-11-04T05:22:46.938Z,99.99
2016-11-04T05:23:59.284Z,99.99
2016-11-04T05:25:12.504Z,99.99
2016-11-04T05:26:23.385Z,99.99
2016-11-04T05:27:35.643Z,99.99
2016-11-04T05:28:46.749Z,99.99
2016-11-04T05:29:58.983Z,99.99
2016-11-04T05:31:10.539Z,99.99
2016-11-04T05:32:22.063Z,99.99
2016-11-04T05:33:33.956Z,99.99
2016-11-04T05:34:45.286Z,99.99
2016-11-04T05:35:58.114Z,99.99
2016-11-04T05:37:10.111Z,99.99
2016-11-04T05:38:22.276Z,99.99
2016-11-04T05:39:33.774Z,99.99
2016-11-04T05:40:43.801Z,99.99
2016-11-04T05:41:55.505Z,99.99
2016-11-04T05:43:07.437Z,99.99
2016-11-04T05:44:19.040Z,99.99
2016-11-04T05:45:31.620Z,99.99
2016-11-04T05:46:44.335Z,99.99
2016-11-04T05:47:55.535Z,99.99
2016-11-04T05:49:06.795Z,99.99
2016-11-04T05:50:19.644Z,99.99
2016-11-04T05:51:30.527Z,99.99
2016-11-04T05:52:42.032Z,99.99
2016-11-04T05:53:53.873Z,99.99
2016-11-04T05:55:06.489Z,99.99
2016-11-04T05:56:17.957Z,99.99
2016-11-04T05:57:28.990Z,99.99
2016-11-04T05:58:41.148Z,99.99
2016-11-04T05:59:53.647Z,99.99
2016-11-04T06:01:06.414Z,99.99
2016-11-04T06:02:18.712Z,99.99
2016-11-04T06:03:28.829Z,99.99
2016-11-04T06:04:40.435Z,99.99
2016-11-04T06:05:51.745Z,99.99
2016-11-04T06:07:02.814Z,99.99
2016-11-04T06:08:12.312Z,99.99
2016-11-04T06:09:23.378Z,99.99
2016-11-04T06:10:35.619Z,99.99
2016-11-04T06:11:47.902Z,99.99
2016-11-04T06:13:00.151Z,99.99
2016-11-04T06:14:11.317Z,99.99
2016-11-04T06:15:23.515Z,99.99
2016-11-04T06:16:34.626Z,99.99
2016-11-04T06:17:47.954Z,99.99
2016-11-04T06:18:59.375Z,99.99
2016-11-04T06:20:11.863Z,99.99
2016-11-04T06:21:22.891Z,99.99
2016-11-04T06:22:34.306Z,99.99
2016-11-04T06:23:46.940Z,99.99
2016-11-04T06:24:58.916Z,99.99
2016-11-04T06:26:11.139Z,99.99
2016-11-04T06:27:23.824Z,99.99
2016-11-04T06:28:36.031Z,99.99
2016-11-04T06:29:47.888Z,99.99
2016-11-04T06:30:59.100Z,99.99
2016-11-04T06:32:11.293Z,99.99
2016-11-04T06:33:23.231Z,99.99
2016-11-04T06:34:36.117Z,99.99
2016-11-04T06:35:48.145Z,99.99
2016-11-04T06:36:59.715Z,99.99
2016-11-04T06:38:11.241Z,99.99
2016-11-04T06:39:21.574Z,99.99
2016-11-04T06:40:33.402Z,99.99
2016-11-04T06:41:43.070Z,99.99
2016-11-04T06:42:54.031Z,99.99
2016-11-04T06:44:07.210Z,99.99
2016-11-04T06:45:20.347Z,99.99
2016-11-04T06:46:32.329Z,99.99
2016-11-04T06:47:44.578Z,99.99
2016-11-04T06:48:56.521Z,99.99
2016-11-04T06:50:08.583Z,99.99
2016-11-04T06:51:21.308Z,99.99
2016-11-04T06:52:32.688Z,99.99
2016-11-04T06:53:44.435Z,99.99
2016-11-04T06:54:56.665Z,99.99
2016-11-04T06:56:07.351Z,99.99
2016-11-04T06:57:18.714Z,99.99
2016-11-04T06:58:29.936Z,99.99
2016-11-04T06:59:42.709Z,99.99
2016-11-04T07:00:55.413Z,99.99
2016-11-04T07:02:07.545Z,99.99
2016-11-04T07:03:20.044Z,99.99
2016-11-04T07:04:30.936Z,99.99
2016-11-04T07:05:42.302Z,99.99
2016-11-04T07:06:53.428Z,99.99
2016-11-04T07:08:05.284Z,99.99
2016-11-04T07:09:17.505Z,99.99
2016-11-04T07:10:28.962Z,99.99
2016-11-04T07:11:41.599Z,99.99
2016-11-04T07:12:52.047Z,99.99
2016-11-04T07:14:03.858Z,99.99
2016-11-04T07:15:15.899Z,99.99
2016-11-04T07:16:27.972Z,99.99
2016-11-04T07:17:39.380Z,99.99
2016-11-04T07:18:52.055Z,99.99
2016-11-04T07:20:04.702Z,99.99
2016-11-04T07:21:16.957Z,99.99
2016-11-04T07:22:28.391Z,99.99
2016-11-04T07:23:40.660Z,99.99
2016-11-04T07:24:53.352Z,99.99
2016-11-04T07:26:05.236Z,99.99
2016-11-04T07:27:17.961Z,99.99
2016-11-04T07:28:29.415Z,99.99
2016-11-04T07:29:41.390Z,99.99
2016-11-04T07:30:52.830Z,99.99
2016-11-04T07:32:05.082Z,99.99
2016-11-04T07:33:16.927Z,99.99
2016-11-04T07:34:29.785Z,99.99
2016-11-04T07:35:41.533Z,99.99
2016-11-04T07:36:53.573Z,99.99
2016-11-04T07:38:04.503Z,99.99
2016-11-04T07:39:17.015Z,99.99
2016-11-04T07:40:28.647Z,99.99
2016-11-04T07:41:41.392Z,99.63
2016-11-04T07:42:53.169Z,99.54
2016-11-04T07:44:04.584Z,98.91
2016-11-04T07:45:16.972Z,98.82
2016-11-04T07:46:28.531Z,98.05
2016-11-04T07:47:39.154Z,98.14
2016-11-04T07:48:49.551Z,98.14
2016-11-04T07:50:01.683Z,97.67
2016-11-04T07:51:13.311Z,97.86
2016-11-04T07:52:25.071Z,98.19
2016-11-04T07:53:36.903Z,96.94
2016-11-04T07:54:47.799Z,96.27
2016-11-04T07:55:59.662Z,96.56
2016-11-04T07:57:10.966Z,95.94
2016-11-04T07:58:23.228Z,96.66
2016-11-04T07:59:35.043Z,97.71
2016-11-04T08:00:47.023Z,97.28
2016-11-04T08:01:58.429Z,97.14
2016-11-04T08:03:10.231Z,97.33
2016-11-04T08:04:23.353Z,96.85
2016-11-04T08:05:36.050Z,97.67
2016-11-04T08:06:48.629Z,97.19
2016-11-04T08:08:00.414Z,96.56
2016-11-04T08:09:12.336Z,95.89
2016-11-04T08:10:24.507Z,96.08
2016-11-04T08:11:35.784Z,95.89
2016-11-04T08:12:46.407Z,95.21
2016-11-04T08:13:58.133Z,94.68
2016-11-04T08:15:08.551Z,94.3
2016-11-04T08:16:21.052Z,94.06
2016-11-04T08:17:32.960Z,93.48
2016-11-04T08:18:44.681Z,92.9
2016-11-04T08:19:56.621Z,91.46
2016-11-04T08:21:09.231Z,91.5
2016-11-04T08:22:21.447Z,92.18
2016-11-04T08:23:33.714Z,91.79
2016-11-04T08:24:46.693Z,92.47
2016-11-04T08:25:58.293Z,92.47
2016-11-04T08:27:10.652Z,91.89
2016-11-04T08:28:22.766Z,91.5
2016-11-04T08:29:34.539Z,90.58
2016-11-04T08:30:46.535Z,90
2016-11-04T08:31:58.575Z,89.72
2016-11-04T08:33:10.171Z,89.32
2016-11-04T08:34:21.729Z,88.07
2016-11-04T08:35:32.673Z,89.03
2016-11-04T08:36:43.311Z,88.55
2016-11-04T08:37:55.238Z,87.97
2016-11-04T08:39:07.512Z,88.26
2016-11-04T08:40:19.553Z,87.73
2016-11-04T08:41:31.847Z,88.11
2016-11-04T08:42:43.832Z,88.02
2016-11-04T08:43:54.647Z,89.32
2016-11-04T08:45:06.202Z,87.88
2016-11-04T08:46:17.065Z,87.34
2016-11-04T08:47:28.945Z,87.63
2016-11-04T08:48:41.223Z,86.86
2016-11-04T08:49:53.179Z,86.66
2016-11-04T08:51:05.163Z,86.08
2016-11-04T08:52:17.247Z,86.03
2016-11-04T08:53:29.118Z,86.32
2016-11-04T08:54:41.721Z,87.19
2016-11-04T08:55:52.897Z,87.78
2016-11-04T08:57:05.614Z,86.76
2016-11-04T08:58:18.209Z,86.22
2016-11-04T08:59:30.426Z,85.45
2016-11-04T09:00:42.665Z,85.94
2016-11-04T09:01:52.868Z,85.45
2016-11-04T09:03:04.994Z,85.3
2016-11-04T09:04:16.786Z,84.82
2016-11-04T09:05:28.996Z,85.11
2016-11-04T09:06:40.410Z,85.11
2016-11-04T09:07:51.308Z,84.91
2016-11-04T09:09:01.875Z,85.01
2016-11-04T09:10:13.556Z,85.01
2016-11-04T09:11:24.757Z,85.49
2016-11-04T09:12:36.948Z,85.4
2016-11-04T09:13:47.978Z,86.07
2016-11-04T09:15:00.394Z,87.52
2016-11-04T09:16:12.602Z,86.9
2016-11-04T09:17:23.991Z,86.56
2016-11-04T09:18:36.728Z,87.23
2016-11-04T09:19:48.802Z,88.97
2016-11-04T09:21:00.465Z,89.89
2016-11-04T09:22:12.423Z,89.95
2016-11-04T09:23:25.167Z,90.81
2016-11-04T09:24:35.779Z,90.14
2016-11-04T09:25:47.533Z,90.14
2016-11-04T09:26:59.361Z,89.37
2016-11-04T09:28:10.334Z,88.45
2016-11-04T09:29:21.973Z,88.83
2016-11-04T09:30:33.194Z,88.01
2016-11-04T09:31:46.484Z,87.62
2016-11-04T09:32:57.532Z,87.52
2016-11-04T09:34:09.242Z,87.52
2016-11-04T09:35:21.513Z,88.59
2016-11-04T09:36:33.806Z,87.29
2016-11-04T09:37:44.876Z,86.51
2016-11-04T09:38:55.964Z,86.79
2016-11-04T09:40:07.701Z,86.6
2016-11-04T09:41:19.837Z,85.93
2016-11-04T09:42:31.302Z,86.79
2016-11-04T09:43:43.965Z,89.45
2016-11-04T09:44:56.619Z,89.99
2016-11-04T09:46:07.165Z,90.47
2016-11-04T09:47:18.947Z,88.93
2016-11-04T09:48:29.980Z,88.78
2016-11-04T09:49:40.859Z,90.33
2016-11-04T09:50:53.054Z,91.05
2016-11-04T09:52:05.476Z,91.39
2016-11-04T09:53:17.575Z,89.95
2016-11-04T09:54:29.685Z,90.37
2016-11-04T09:55:41.108Z,91.2
2016-11-04T09:56:51.995Z,91.49
2016-11-04T09:58:03.950Z,90.23
2016-11-04T09:59:15.025Z,89.61
2016-11-04T10:00:25.899Z,89.99
2016-11-04T10:01:38.601Z,89.7
2016-11-04T10:02:49.844Z,89.41
2016-11-04T10:04:03.034Z,87.71
2016-11-04T10:05:14.858Z,87.33
2016-11-04T10:06:26.429Z,87.33
2016-11-04T10:07:38.420Z,88.78
2016-11-04T10:08:49.948Z,89.61
2016-11-04T10:10:02.470Z,88.98
2016-11-04T10:11:13.201Z,88.64
2016-11-04T10:12:25.187Z,87.71
2016-11-04T10:13:38.015Z,86.56
2016-11-04T10:14:49.953Z,85.73
2016-11-04T10:16:01.789Z,86.41
2016-11-04T10:17:12.596Z,87.91
2016-11-04T10:18:23.954Z,89.47
2016-11-04T10:19:36.253Z,88.69
2016-11-04T10:20:47.434Z,87.44
2016-11-04T10:21:58.835Z,86.8
2016-11-04T10:23:10.515Z,87.67
2016-11-04T10:24:22.751Z,87.77
2016-11-04T10:25:34.972Z,87.29
2016-11-04T10:26:46.078Z,87.19
2016-11-04T10:27:58.647Z,87.43
2016-11-04T10:29:09.742Z,88.59
2016-11-04T10:30:22.530Z,89.03
2016-11-04T10:31:33.444Z,89.51
2016-11-04T10:32:44.235Z,90.13
2016-11-04T10:33:55.423Z,90.28
2016-11-04T10:35:06.569Z,91.73
2016-11-04T10:36:17.489Z,91.88
2016-11-04T10:37:29.256Z,90.53
2016-11-04T10:38:39.284Z,90.81
2016-11-04T10:39:51.339Z,92.26
2016-11-04T10:41:03.324Z,93.71
2016-11-04T10:42:15.427Z,94.2
2016-11-04T10:43:25.745Z,94.2
2016-11-04T10:44:37.503Z,94.48
2016-11-04T10:45:48.976Z,94.38
2016-11-04T10:47:00.650Z,94.48
2016-11-04T10:48:13.152Z,94.62
2016-11-04T10:49:24.739Z,94.68
2016-11-04T10:50:35.701Z,93.18
2016-11-04T10:51:47.715Z,93.41
2016-11-04T10:52:59.618Z,94.34
2016-11-04T10:54:12.158Z,93.85
2016-11-04T10:55:24.284Z,94.43
2016-11-04T10:56:35.710Z,94.62
2016-11-04T10:57:46.328Z,95.93
2016-11-04T10:58:58.117Z,97.09
2016-11-04T11:00:09.946Z,96.84
2016-11-04T11:01:21.236Z,96.12
2016-11-04T11:02:32.919Z,96.41
2016-11-04T11:03:44.370Z,97.09
2016-11-04T11:04:56.188Z,96.7
2016-11-04T11:06:07.875Z,98.44
2016-11-04T11:07:19.904Z,98.73
2016-11-04T11:08:30.570Z,99.79
2016-11-04T11:09:43.101Z,99.4
2016-11-04T11:10:55.925Z,99.21
2016-11-04T11:12:07.875Z,99.98
2016-11-04T11:13:19.628Z,99.4
2016-11-04T11:14:30.998Z,99.98
2016-11-04T11:15:41.517Z,99.79
2016-11-04T11:16:52.735Z,99.99
2016-11-04T11:18:03.704Z,99.99
2016-11-04T11:19:15.728Z,99.99
2016-11-04T11:20:26.800Z,99.99
2016-11-04T11:21:38.546Z,99.99
2016-11-04T11:22:48.636Z,99.99
2016-11-04T11:23:59.800Z,99.99
2016-11-04T11:25:11.770Z,99.99
2016-11-04T11:26:23.516Z,99.99
2016-11-04T11:27:35.192Z,99.99
2016-11-04T11:28:46.895Z,99.99
2016-11-04T11:29:58.201Z,99.99
2016-11-04T11:31:09.466Z,99.99
2016-11-04T11:32:21.944Z,99.99
2016-11-04T11:33:33.559Z,99.99
2016-11-04T11:34:45.337Z,99.99
2016-11-04T11:35:58.101Z,99.99
2016-11-04T11:37:10.234Z,99.99
2016-11-04T11:38:21.761Z,99.99
2016-11-04T11:39:34.526Z,99.99
2016-11-04T11:40:46.528Z,99.99
2016-11-04T11:41:57.822Z,99.99
2016-11-04T11:43:08.319Z,99.99
2016-11-04T11:44:19.403Z,99.99
2016-11-04T11:45:30.630Z,99.99
2016-11-04T11:46:42.667Z,99.99
2016-11-04T11:47:54.389Z,99.99
2016-11-04T11:49:05.263Z,99.99
2016-11-04T11:50:17.009Z,99.99
2016-11-04T11:51:28.621Z,99.99
2016-11-04T11:52:40.058Z,99.99
2016-11-04T11:53:51.943Z,99.99
2016-11-04T11:55:03.896Z,99.99
2016-11-04T11:56:15.711Z,99.99
2016-11-04T11:57:28.504Z,99.99
2016-11-04T11:58:40.224Z,99.99
2016-11-04T11:59:51.783Z,99.99
2016-11-04T12:01:04.491Z,99.4
2016-11-04T12:02:15.761Z,99.99
2016-11-04T12:03:27.574Z,99.02
2016-11-04T12:04:39.756Z,99.26
2016-11-04T12:05:51.165Z,99.35
2016-11-04T12:07:02.398Z,99.99
2016-11-04T12:08:13.899Z,99.99
2016-11-04T12:09:26.708Z,99.99
2016-11-04T12:10:38.749Z,99.99
2016-11-04T12:11:50.926Z,99.99
2016-11-04T12:13:02.353Z,99.99
2016-11-04T12:14:14.168Z,99.99
2016-11-04T12:15:25.759Z,99.99
2016-11-04T12:16:37.131Z,99.99
2016-11-04T12:17:47.049Z,99.99
2016-11-04T12:18:59.841Z,99.99
2016-11-04T12:20:11.393Z,99.99
2016-11-04T12:21:23.956Z,99.99
2016-11-04T12:22:35.444Z,99.99
2016-11-04T12:23:47.350Z,99.99
2016-11-04T12:24:58.282Z,99.99
2016-11-04T12:26:09.768Z,99.99
2016-11-04T12:27:20.553Z,99.21
2016-11-04T12:28:31.003Z,99.65
2016-11-04T12:29:42.649Z,99.6
2016-11-04T12:30:54.098Z,98.49
2016-11-04T12:32:07.096Z,98.49
2016-11-04T12:33:19.153Z,99.84
2016-11-04T12:34:29.688Z,99.99
2016-11-04T12:35:41.977Z,99.99
2016-11-04T12:36:55.288Z,99.99
2016-11-04T12:38:06.702Z,99.99
2016-11-04T12:39:19.404Z,99.84
2016-11-04T12:40:31.231Z,99.99
2016-11-04T12:41:42.305Z,99.99
2016-11-04T12:42:53.995Z,99.99
2016-11-04T12:44:05.514Z,99.99
2016-11-04T12:45:17.585Z,99.99
2016-11-04T12:46:29.048Z,99.99
2016-11-04T12:47:41.255Z,99.99
2016-11-04T12:48:53.141Z,99.99
2016-11-04T12:50:05.359Z,99.26
2016-11-04T12:51:17.010Z,99.11
2016-11-04T12:52:29.079Z,98.25
2016-11-04T12:53:40.771Z,99.21
2016-11-04T12:54:52.867Z,99.99
2016-11-04T12:56:03.422Z,99.99
2016-11-04T12:57:16.502Z,99.99
2016-11-04T12:58:27.422Z,99.99
2016-11-04T12:59:40.088Z,99.99
2016-11-04T13:00:50.780Z,99.99
2016-11-04T13:02:02.482Z,99.99
2016-11-04T13:03:14.440Z,99.26
2016-11-04T13:04:26.359Z,99.11
2016-11-04T13:05:38.717Z,99.5
2016-11-04T13:06:50.526Z,99.93
2016-11-04T13:08:03.292Z,99.35
2016-11-04T13:09:14.995Z,99.26
2016-11-04T13:10:27.237Z,98.54
2016-11-04T13:11:37.792Z,98.83
2016-11-04T13:12:49.753Z,99.26
2016-11-04T13:14:01.723Z,98.97
2016-11-04T13:15:13.819Z,99.21
2016-11-04T13:16:26.469Z,98.87
2016-11-04T13:17:38.214Z,99.35
2016-11-04T13:18:48.875Z,99.74
2016-11-04T13:20:00.875Z,99.99
2016-11-04T13:21:14.040Z,99.99
2016-11-04T13:22:25.637Z,99.99
2016-11-04T13:23:36.670Z,99.99
2016-11-04T13:24:48.410Z,99.99
2016-11-04T13:26:00.762Z,99.99
2016-11-04T13:27:12.936Z,99.99
2016-11-04T13:28:24.915Z,99.99
2016-11-04T13:29:35.900Z,99.99
2016-11-04T13:30:46.481Z,99.99
2016-11-04T13:31:57.111Z,99.99
2016-11-04T13:33:09.329Z,99.99
2016-11-04T13:34:20.948Z,99.99
2016-11-04T13:35:34.111Z,99.99
2016-11-04T13:36:45.656Z,99.99
2016-11-04T13:37:56.416Z,99.99
2016-11-04T13:39:08.628Z,99.99
2016-11-04T13:40:20.538Z,99.99
2016-11-04T13:41:32.326Z,99.99
2016-11-04T13:42:44.100Z,99.99
2016-11-04T13:43:55.726Z,99.99
2016-11-04T13:45:07.132Z,99.99
2016-11-04T13:46:18.356Z,99.99
2016-11-04T13:47:30.111Z,99.99
2016-11-04T13:48:41.102Z,99.99
2016-11-04T13:49:51.846Z,99.99
2016-11-04T13:51:03.914Z,99.99
2016-11-04T13:52:15.120Z,99.99
2016-11-04T13:53:25.392Z,99.99
2016-11-04T13:54:36.867Z,99.99
2016-11-04T13:55:48.302Z,99.99
2016-11-04T13:57:01.153Z,99.99
2016-11-04T13:58:13.885Z,99.99
2016-11-04T13:59:25.905Z,99.99
2016-11-04T14:00:36.374Z,99.99
2016-11-04T14:01:48.696Z,99.99
2016-11-04T14:03:01.404Z,99.99
2016-11-04T14:04:13.455Z,99.99
2016-11-04T14:05:25.088Z,99.99
2016-11-04T14:06:37.316Z,99.99
2016-11-04T14:07:49.983Z,99.99
2016-11-04T14:09:01.246Z,99.99
2016-11-04T14:10:12.935Z,99.99
2016-11-04T14:11:23.138Z,99.99
2016-11-04T14:12:34.896Z,99.99
2016-11-04T14:13:46.228Z,99.99
2016-11-04T14:14:57.989Z,99.99
2016-11-04T14:16:08.846Z,99.99
2016-11-04T14:17:20.908Z,99.99
2016-11-04T14:18:33.622Z,99.99
2016-11-04T14:19:46.228Z,99.99
2016-11-04T14:20:57.168Z,99.99
2016-11-04T14:22:10.438Z,99.99
2016-11-04T14:23:21.165Z,99.99
2016-11-04T14:24:32.258Z,99.99
2016-11-04T14:25:43.356Z,99.99
2016-11-04T14:26:55.679Z,99.99
2016-11-04T14:28:07.845Z,99.99
2016-11-04T14:29:20.507Z,99.99
2016-11-04T14:30:31.601Z,99.99
2016-11-04T14:31:42.538Z,99.99
2016-11-04T14:32:54.205Z,99.99
2016-11-04T14:34:06.061Z,99.99
2016-11-04T14:35:17.678Z,99.99
2016-11-04T14:36:29.801Z,99.99
2016-11-04T14:37:41.917Z,99.99
2016-11-04T14:38:54.129Z,99.99
2016-11-04T14:40:05.998Z,99.99
2016-11-04T14:41:16.565Z,99.99
2016-11-04T14:42:29.319Z,99.99
2016-11-04T14:43:41.547Z,99.99
2016-11-04T14:44:52.535Z,99.99
2016-11-04T14:46:04.030Z,99.99
2016-11-04T14:47:15.843Z,99.99
2016-11-04T14:48:27.582Z,99.99
2016-11-04T14:49:39.711Z,99.99
2016-11-04T14:50:50.797Z,99.99
2016-11-04T14:52:02.640Z,99.99
2016-11-04T14:53:14.815Z,99.99
2016-11-04T14:54:25.276Z,99.99
2016-11-04T14:55:37.006Z,99.99
2016-11-04T14:56:49.272Z,99.99
2016-11-04T14:58:00.914Z,99.99
2016-11-04T14:59:12.132Z,99.99
2016-11-04T15:00:24.116Z,99.99
2016-11-04T15:01:34.449Z,99.99
2016-11-04T15:02:45.840Z,99.99
2016-11-04T15:03:57.583Z,99.99
2016-11-04T15:05:08.904Z,99.99
2016-11-04T15:06:21.946Z,99.99
2016-11-04T15:07:34.182Z,99.99
2016-11-04T15:08:45.547Z,99.99
2016-11-04T15:09:56.920Z,99.99
2016-11-04T15:11:06.913Z,99.99
2016-11-04T15:12:18.362Z,99.99
2016-11-04T15:13:29.702Z,99.99
2016-11-04T15:14:40.796Z,99.99
2016-11-04T15:15:52.651Z,99.99
2016-11-04T15:17:04.634Z,99.99
2016-11-04T15:18:15.592Z,99.99
2016-11-04T15:19:27.777Z,99.99
2016-11-04T15:20:39.928Z,99.99
2016-11-04T15:21:52.254Z,99.99
2016-11-04T15:23:04.478Z,99.99
2016-11-04T15:24:15.349Z,99.99
2016-11-04T15:25:27.873Z,99.99
2016-11-04T15:26:38.469Z,99.99